sensor_id;sensor_type;location;lat;lon;timestamp;temperature;humidity
64685;DHT22;51109;47.414;18.954;2022-07-22T00:01:35;27.60;63.30
64685;DHT22;51109;47.414;18.954;2022-07-22T00:04:01;27.60;63.20
64685;DHT22;51109;47.414;18.954;2022-07-22T00:06:29;27.60;64.20
64685;DHT22;51109;47.414;18.954;2022-07-22T00:08:55;27.50;63.90
64685;DHT22;51109;47.414;18.954;2022-07-22T00:11:21;27.50;63.10
64685;DHT22;51109;47.414;18.954;2022-07-22T00:13:48;27.50;62.80
64685;DHT22;51109;47.414;18.954;2022-07-22T00:16:14;27.50;63.00
64685;DHT22;51109;47.414;18.954;2022-07-22T00:18:40;27.40;62.90
64685;DHT22;51109;47.414;18.954;2022-07-22T00:21:06;27.30;64.00
64685;DHT22;51109;47.414;18.954;2022-07-22T00:23:32;27.30;63.60
64685;DHT22;51109;47.414;18.954;2022-07-22T00:25:58;27.30;63.60
64685;DHT22;51109;47.414;18.954;2022-07-22T00:28:24;27.20;63.30
64685;DHT22;51109;47.414;18.954;2022-07-22T00:30:50;27.20;63.40
64685;DHT22;51109;47.414;18.954;2022-07-22T00:33:16;27.20;63.00
64685;DHT22;51109;47.414;18.954;2022-07-22T00:35:42;27.10;63.00
64685;DHT22;51109;47.414;18.954;2022-07-22T00:38:09;27.10;62.80
64685;DHT22;51109;47.414;18.954;2022-07-22T00:40:35;27.20;63.00
64685;DHT22;51109;47.414;18.954;2022-07-22T00:43:01;27.10;62.60
64685;DHT22;51109;47.414;18.954;2022-07-22T00:45:27;27.10;62.00
64685;DHT22;51109;47.414;18.954;2022-07-22T00:47:53;27.00;62.30
64685;DHT22;51109;47.414;18.954;2022-07-22T00:50:19;26.80;62.60
64685;DHT22;51109;47.414;18.954;2022-07-22T00:52:47;26.60;63.10
64685;DHT22;51109;47.414;18.954;2022-07-22T00:55:13;26.40;63.50
64685;DHT22;51109;47.414;18.954;2022-07-22T00:57:40;26.10;64.80
64685;DHT22;51109;47.414;18.954;2022-07-22T01:00:10;26.00;66.60
64685;DHT22;51109;47.414;18.954;2022-07-22T01:02:36;26.00;68.00
64685;DHT22;51109;47.414;18.954;2022-07-22T01:05:03;26.00;68.80
64685;DHT22;51109;47.414;18.954;2022-07-22T01:07:30;26.10;68.30
64685;DHT22;51109;47.414;18.954;2022-07-22T01:09:56;26.20;67.90
64685;DHT22;51109;47.414;18.954;2022-07-22T01:12:22;26.30;68.30
64685;DHT22;51109;47.414;18.954;2022-07-22T01:14:48;26.40;68.50
64685;DHT22;51109;47.414;18.954;2022-07-22T01:17:13;26.40;68.70
64685;DHT22;51109;47.414;18.954;2022-07-22T01:19:40;26.30;68.50
64685;DHT22;51109;47.414;18.954;2022-07-22T01:22:06;26.20;68.40
64685;DHT22;51109;47.414;18.954;2022-07-22T01:24:32;26.10;68.20
64685;DHT22;51109;47.414;18.954;2022-07-22T01:26:59;26.00;67.40
64685;DHT22;51109;47.414;18.954;2022-07-22T01:29:25;25.90;67.60
64685;DHT22;51109;47.414;18.954;2022-07-22T01:31:51;25.80;67.80
64685;DHT22;51109;47.414;18.954;2022-07-22T01:34:17;25.80;67.40
64685;DHT22;51109;47.414;18.954;2022-07-22T01:36:43;25.80;69.30
64685;DHT22;51109;47.414;18.954;2022-07-22T01:39:09;25.70;69.10
64685;DHT22;51109;47.414;18.954;2022-07-22T01:41:35;25.60;68.30
64685;DHT22;51109;47.414;18.954;2022-07-22T01:44:01;25.40;69.00
64685;DHT22;51109;47.414;18.954;2022-07-22T01:46:27;25.30;68.70
64685;DHT22;51109;47.414;18.954;2022-07-22T01:48:53;25.30;69.50
64685;DHT22;51109;47.414;18.954;2022-07-22T01:51:19;25.10;69.80
64685;DHT22;51109;47.414;18.954;2022-07-22T01:53:45;25.00;69.80
64685;DHT22;51109;47.414;18.954;2022-07-22T01:56:12;24.90;69.70
64685;DHT22;51109;47.414;18.954;2022-07-22T01:58:38;24.90;69.70
64685;DHT22;51109;47.414;18.954;2022-07-22T02:01:04;24.90;69.20
64685;DHT22;51109;47.414;18.954;2022-07-22T02:03:30;24.90;69.20
64685;DHT22;51109;47.414;18.954;2022-07-22T02:05:55;24.80;69.20
64685;DHT22;51109;47.414;18.954;2022-07-22T02:08:22;24.70;70.00
64685;DHT22;51109;47.414;18.954;2022-07-22T02:10:48;24.70;69.00
64685;DHT22;51109;47.414;18.954;2022-07-22T02:13:14;24.70;68.50
64685;DHT22;51109;47.414;18.954;2022-07-22T02:15:40;24.80;67.90
64685;DHT22;51109;47.414;18.954;2022-07-22T02:18:16;24.80;68.40
64685;DHT22;51109;47.414;18.954;2022-07-22T02:20:44;24.80;69.30
64685;DHT22;51109;47.414;18.954;2022-07-22T02:23:10;24.70;69.20
64685;DHT22;51109;47.414;18.954;2022-07-22T02:25:40;24.60;69.20
64685;DHT22;51109;47.414;18.954;2022-07-22T02:28:06;24.60;69.00
64685;DHT22;51109;47.414;18.954;2022-07-22T02:30:32;24.50;68.50
64685;DHT22;51109;47.414;18.954;2022-07-22T02:32:58;24.60;69.10
64685;DHT22;51109;47.414;18.954;2022-07-22T02:35:25;24.60;69.80
64685;DHT22;51109;47.414;18.954;2022-07-22T02:37:51;24.60;69.20
64685;DHT22;51109;47.414;18.954;2022-07-22T02:40:17;24.60;69.50
64685;DHT22;51109;47.414;18.954;2022-07-22T02:42:43;24.60;69.00
64685;DHT22;51109;47.414;18.954;2022-07-22T02:45:09;24.50;70.00
64685;DHT22;51109;47.414;18.954;2022-07-22T02:47:48;24.40;69.60
64685;DHT22;51109;47.414;18.954;2022-07-22T02:50:14;24.40;70.00
64685;DHT22;51109;47.414;18.954;2022-07-22T02:52:40;24.30;70.50
64685;DHT22;51109;47.414;18.954;2022-07-22T02:55:06;24.20;70.10
64685;DHT22;51109;47.414;18.954;2022-07-22T02:57:32;24.20;70.20
64685;DHT22;51109;47.414;18.954;2022-07-22T02:59:58;24.20;69.30
64685;DHT22;51109;47.414;18.954;2022-07-22T03:02:24;24.20;69.00
64685;DHT22;51109;47.414;18.954;2022-07-22T03:04:49;24.20;69.40
64685;DHT22;51109;47.414;18.954;2022-07-22T03:07:15;24.30;70.10
64685;DHT22;51109;47.414;18.954;2022-07-22T03:09:41;24.30;70.50
64685;DHT22;51109;47.414;18.954;2022-07-22T03:12:07;24.30;71.00
64685;DHT22;51109;47.414;18.954;2022-07-22T03:14:33;24.20;71.10
64685;DHT22;51109;47.414;18.954;2022-07-22T03:16:59;24.20;71.60
64685;DHT22;51109;47.414;18.954;2022-07-22T03:19:25;24.20;71.60
64685;DHT22;51109;47.414;18.954;2022-07-22T03:21:51;24.10;72.30
64685;DHT22;51109;47.414;18.954;2022-07-22T03:24:17;24.10;70.90
64685;DHT22;51109;47.414;18.954;2022-07-22T03:26:42;24.20;71.10
64685;DHT22;51109;47.414;18.954;2022-07-22T03:29:08;24.20;71.10
64685;DHT22;51109;47.414;18.954;2022-07-22T03:31:34;24.40;71.60
64685;DHT22;51109;47.414;18.954;2022-07-22T03:34:00;24.30;70.90
64685;DHT22;51109;47.414;18.954;2022-07-22T03:36:27;24.40;70.50
64685;DHT22;51109;47.414;18.954;2022-07-22T03:38:54;24.40;71.40
64685;DHT22;51109;47.414;18.954;2022-07-22T03:41:21;24.40;71.50
64685;DHT22;51109;47.414;18.954;2022-07-22T03:43:47;24.40;71.50
64685;DHT22;51109;47.414;18.954;2022-07-22T03:46:13;24.50;71.20
64685;DHT22;51109;47.414;18.954;2022-07-22T03:48:39;24.50;72.00
64685;DHT22;51109;47.414;18.954;2022-07-22T03:51:05;24.60;72.70
64685;DHT22;51109;47.414;18.954;2022-07-22T03:53:31;24.60;73.00
64685;DHT22;51109;47.414;18.954;2022-07-22T03:55:59;24.70;73.30
64685;DHT22;51109;47.414;18.954;2022-07-22T03:58:25;24.80;73.10
64685;DHT22;51109;47.414;18.954;2022-07-22T04:00:52;24.80;73.00
64685;DHT22;51109;47.414;18.954;2022-07-22T04:03:18;25.00;73.50
64685;DHT22;51109;47.414;18.954;2022-07-22T04:05:44;25.10;74.80
64685;DHT22;51109;47.414;18.954;2022-07-22T04:08:12;25.10;75.00
64685;DHT22;51109;47.414;18.954;2022-07-22T04:10:38;25.10;75.50
64685;DHT22;51109;47.414;18.954;2022-07-22T04:13:04;25.10;75.30
64685;DHT22;51109;47.414;18.954;2022-07-22T04:15:30;25.10;74.80
64685;DHT22;51109;47.414;18.954;2022-07-22T04:17:56;25.10;73.30
64685;DHT22;51109;47.414;18.954;2022-07-22T04:20:22;25.30;73.30
64685;DHT22;51109;47.414;18.954;2022-07-22T04:22:48;25.40;73.50
64685;DHT22;51109;47.414;18.954;2022-07-22T04:25:14;25.50;72.50
64685;DHT22;51109;47.414;18.954;2022-07-22T04:27:40;25.70;73.40
64685;DHT22;51109;47.414;18.954;2022-07-22T04:30:07;25.80;73.90
64685;DHT22;51109;47.414;18.954;2022-07-22T04:32:33;25.90;74.60
64685;DHT22;51109;47.414;18.954;2022-07-22T04:34:59;26.00;73.30
64685;DHT22;51109;47.414;18.954;2022-07-22T04:37:25;26.10;72.00
64685;DHT22;51109;47.414;18.954;2022-07-22T04:39:51;26.20;72.60
64685;DHT22;51109;47.414;18.954;2022-07-22T04:42:17;26.20;72.80
64685;DHT22;51109;47.414;18.954;2022-07-22T04:44:43;26.30;72.70
64685;DHT22;51109;47.414;18.954;2022-07-22T04:47:11;26.40;71.80
64685;DHT22;51109;47.414;18.954;2022-07-22T04:49:37;26.40;70.10
64685;DHT22;51109;47.414;18.954;2022-07-22T04:52:03;26.50;71.60
64685;DHT22;51109;47.414;18.954;2022-07-22T04:54:29;26.60;71.10
64685;DHT22;51109;47.414;18.954;2022-07-22T04:56:55;26.70;71.80
64685;DHT22;51109;47.414;18.954;2022-07-22T04:59:21;26.90;70.90
64685;DHT22;51109;47.414;18.954;2022-07-22T05:01:47;27.00;71.50
64685;DHT22;51109;47.414;18.954;2022-07-22T05:04:13;27.10;71.30
64685;DHT22;51109;47.414;18.954;2022-07-22T05:06:39;27.20;72.40
64685;DHT22;51109;47.414;18.954;2022-07-22T05:09:05;27.20;69.90
64685;DHT22;51109;47.414;18.954;2022-07-22T05:11:31;27.30;69.10
64685;DHT22;51109;47.414;18.954;2022-07-22T05:13:57;27.40;69.00
64685;DHT22;51109;47.414;18.954;2022-07-22T05:16:23;27.60;66.50
64685;DHT22;51109;47.414;18.954;2022-07-22T05:18:49;27.70;66.10
64685;DHT22;51109;47.414;18.954;2022-07-22T05:21:15;27.80;65.10
64685;DHT22;51109;47.414;18.954;2022-07-22T05:23:41;28.00;67.10
64685;DHT22;51109;47.414;18.954;2022-07-22T05:26:07;28.10;65.30
64685;DHT22;51109;47.414;18.954;2022-07-22T05:28:33;28.00;65.20
64685;DHT22;51109;47.414;18.954;2022-07-22T05:30:59;27.90;63.50
64685;DHT22;51109;47.414;18.954;2022-07-22T05:33:25;28.00;63.70
64685;DHT22;51109;47.414;18.954;2022-07-22T05:35:51;28.10;64.10
64685;DHT22;51109;47.414;18.954;2022-07-22T05:38:17;28.30;63.90
64685;DHT22;51109;47.414;18.954;2022-07-22T05:40:43;28.50;61.90
64685;DHT22;51109;47.414;18.954;2022-07-22T05:43:09;28.60;63.40
64685;DHT22;51109;47.414;18.954;2022-07-22T05:45:35;28.70;62.40
64685;DHT22;51109;47.414;18.954;2022-07-22T05:48:01;28.80;62.30
64685;DHT22;51109;47.414;18.954;2022-07-22T05:50:27;28.80;66.10
64685;DHT22;51109;47.414;18.954;2022-07-22T05:52:54;29.00;65.50
64685;DHT22;51109;47.414;18.954;2022-07-22T05:55:20;29.00;63.50
64685;DHT22;51109;47.414;18.954;2022-07-22T05:57:46;28.90;62.30
64685;DHT22;51109;47.414;18.954;2022-07-22T06:00:12;29.00;64.70
64685;DHT22;51109;47.414;18.954;2022-07-22T06:02:38;29.10;61.00
64685;DHT22;51109;47.414;18.954;2022-07-22T06:05:04;29.20;62.60
64685;DHT22;51109;47.414;18.954;2022-07-22T06:07:30;29.40;63.60
64685;DHT22;51109;47.414;18.954;2022-07-22T06:09:57;29.30;63.60
64685;DHT22;51109;47.414;18.954;2022-07-22T06:12:23;29.40;62.30
64685;DHT22;51109;47.414;18.954;2022-07-22T06:14:48;29.50;60.10
64685;DHT22;51109;47.414;18.954;2022-07-22T06:17:14;29.60;60.20
64685;DHT22;51109;47.414;18.954;2022-07-22T06:19:40;29.50;61.60
64685;DHT22;51109;47.414;18.954;2022-07-22T06:22:06;29.60;60.70
64685;DHT22;51109;47.414;18.954;2022-07-22T06:24:32;29.70;61.10
64685;DHT22;51109;47.414;18.954;2022-07-22T06:26:58;29.90;59.00
64685;DHT22;51109;47.414;18.954;2022-07-22T06:29:24;30.00;59.70
64685;DHT22;51109;47.414;18.954;2022-07-22T06:31:49;30.20;58.60
64685;DHT22;51109;47.414;18.954;2022-07-22T06:34:15;30.30;60.40
64685;DHT22;51109;47.414;18.954;2022-07-22T06:36:41;30.50;60.20
64685;DHT22;51109;47.414;18.954;2022-07-22T06:39:07;30.70;60.30
64685;DHT22;51109;47.414;18.954;2022-07-22T06:41:33;30.70;59.80
64685;DHT22;51109;47.414;18.954;2022-07-22T06:43:59;30.60;60.80
64685;DHT22;51109;47.414;18.954;2022-07-22T06:46:25;30.40;61.50
64685;DHT22;51109;47.414;18.954;2022-07-22T06:48:51;30.40;62.60
64685;DHT22;51109;47.414;18.954;2022-07-22T06:51:17;30.60;63.60
64685;DHT22;51109;47.414;18.954;2022-07-22T06:53:43;30.60;61.80
64685;DHT22;51109;47.414;18.954;2022-07-22T06:56:08;30.70;60.70
64685;DHT22;51109;47.414;18.954;2022-07-22T06:58:34;30.70;61.30
64685;DHT22;51109;47.414;18.954;2022-07-22T07:01:00;30.70;62.30
64685;DHT22;51109;47.414;18.954;2022-07-22T07:03:26;30.70;61.90
64685;DHT22;51109;47.414;18.954;2022-07-22T07:05:52;30.90;60.50
64685;DHT22;51109;47.414;18.954;2022-07-22T07:08:18;30.80;60.60
64685;DHT22;51109;47.414;18.954;2022-07-22T07:10:44;30.60;58.50
64685;DHT22;51109;47.414;18.954;2022-07-22T07:13:10;30.60;58.80
64685;DHT22;51109;47.414;18.954;2022-07-22T07:15:36;30.60;58.60
64685;DHT22;51109;47.414;18.954;2022-07-22T07:18:02;30.60;58.20
64685;DHT22;51109;47.414;18.954;2022-07-22T07:20:28;30.50;59.10
64685;DHT22;51109;47.414;18.954;2022-07-22T07:22:54;30.50;58.30
64685;DHT22;51109;47.414;18.954;2022-07-22T07:25:20;30.50;59.10
64685;DHT22;51109;47.414;18.954;2022-07-22T07:27:46;30.70;58.90
64685;DHT22;51109;47.414;18.954;2022-07-22T07:30:12;30.80;58.20
64685;DHT22;51109;47.414;18.954;2022-07-22T07:32:39;30.80;58.80
64685;DHT22;51109;47.414;18.954;2022-07-22T07:35:05;30.80;58.90
64685;DHT22;51109;47.414;18.954;2022-07-22T07:37:32;31.10;59.80
64685;DHT22;51109;47.414;18.954;2022-07-22T07:39:59;31.40;59.90
64685;DHT22;51109;47.414;18.954;2022-07-22T07:42:25;31.50;63.40
64685;DHT22;51109;47.414;18.954;2022-07-22T07:44:51;31.80;62.30
64685;DHT22;51109;47.414;18.954;2022-07-22T07:47:17;32.00;58.90
64685;DHT22;51109;47.414;18.954;2022-07-22T07:49:47;32.00;57.00
64685;DHT22;51109;47.414;18.954;2022-07-22T07:52:14;31.80;57.20
64685;DHT22;51109;47.414;18.954;2022-07-22T07:54:40;31.70;56.70
64685;DHT22;51109;47.414;18.954;2022-07-22T07:57:10;31.50;56.90
64685;DHT22;51109;47.414;18.954;2022-07-22T07:59:40;31.60;58.60
64685;DHT22;51109;47.414;18.954;2022-07-22T08:02:07;31.70;55.90
64685;DHT22;51109;47.414;18.954;2022-07-22T08:04:34;31.80;56.90
64685;DHT22;51109;47.414;18.954;2022-07-22T08:07:00;31.80;56.30
64685;DHT22;51109;47.414;18.954;2022-07-22T08:09:26;31.80;55.80
64685;DHT22;51109;47.414;18.954;2022-07-22T08:11:52;32.00;55.70
64685;DHT22;51109;47.414;18.954;2022-07-22T08:14:18;32.20;58.60
64685;DHT22;51109;47.414;18.954;2022-07-22T08:16:44;32.30;55.10
64685;DHT22;51109;47.414;18.954;2022-07-22T08:19:10;32.30;58.70
64685;DHT22;51109;47.414;18.954;2022-07-22T08:21:36;32.50;57.00
64685;DHT22;51109;47.414;18.954;2022-07-22T08:24:02;32.60;54.90
64685;DHT22;51109;47.414;18.954;2022-07-22T08:26:28;32.80;55.50
64685;DHT22;51109;47.414;18.954;2022-07-22T08:28:54;32.80;53.80
64685;DHT22;51109;47.414;18.954;2022-07-22T08:31:20;32.60;55.30
64685;DHT22;51109;47.414;18.954;2022-07-22T08:33:46;32.60;54.70
64685;DHT22;51109;47.414;18.954;2022-07-22T08:36:12;32.60;56.60
64685;DHT22;51109;47.414;18.954;2022-07-22T08:38:38;32.50;56.60
64685;DHT22;51109;47.414;18.954;2022-07-22T08:41:04;32.60;57.40
64685;DHT22;51109;47.414;18.954;2022-07-22T08:43:32;32.60;57.00
64685;DHT22;51109;47.414;18.954;2022-07-22T08:45:59;32.80;57.30
64685;DHT22;51109;47.414;18.954;2022-07-22T08:48:26;32.90;55.60
64685;DHT22;51109;47.414;18.954;2022-07-22T08:50:52;33.00;54.80
64685;DHT22;51109;47.414;18.954;2022-07-22T08:53:18;33.10;54.10
64685;DHT22;51109;47.414;18.954;2022-07-22T08:55:46;33.10;58.20
64685;DHT22;51109;47.414;18.954;2022-07-22T08:58:12;33.20;58.30
64685;DHT22;51109;47.414;18.954;2022-07-22T09:00:39;33.20;57.10
64685;DHT22;51109;47.414;18.954;2022-07-22T09:03:24;33.20;54.30
64685;DHT22;51109;47.414;18.954;2022-07-22T09:05:53;33.20;56.50
64685;DHT22;51109;47.414;18.954;2022-07-22T09:08:21;33.00;54.20
64685;DHT22;51109;47.414;18.954;2022-07-22T09:10:47;32.90;58.40
64685;DHT22;51109;47.414;18.954;2022-07-22T09:13:15;33.00;58.10
64685;DHT22;51109;47.414;18.954;2022-07-22T09:15:53;33.30;56.90
64685;DHT22;51109;47.414;18.954;2022-07-22T09:18:20;33.50;55.90
64685;DHT22;51109;47.414;18.954;2022-07-22T09:20:46;33.70;54.80
64685;DHT22;51109;47.414;18.954;2022-07-22T09:23:17;33.80;55.70
64685;DHT22;51109;47.414;18.954;2022-07-22T09:25:46;33.80;58.80
64685;DHT22;51109;47.414;18.954;2022-07-22T09:28:18;33.80;57.70
64685;DHT22;51109;47.414;18.954;2022-07-22T09:30:51;33.90;54.20
64685;DHT22;51109;47.414;18.954;2022-07-22T09:33:17;33.90;55.60
64685;DHT22;51109;47.414;18.954;2022-07-22T09:35:45;33.90;57.60
64685;DHT22;51109;47.414;18.954;2022-07-22T09:38:12;34.10;56.70
64685;DHT22;51109;47.414;18.954;2022-07-22T09:40:43;34.20;56.30
64685;DHT22;51109;47.414;18.954;2022-07-22T09:43:11;34.10;56.10
64685;DHT22;51109;47.414;18.954;2022-07-22T09:45:54;34.20;60.10
64685;DHT22;51109;47.414;18.954;2022-07-22T09:48:23;34.40;57.10
64685;DHT22;51109;47.414;18.954;2022-07-22T09:50:51;34.50;59.70
64685;DHT22;51109;47.414;18.954;2022-07-22T09:53:19;34.70;58.50
64685;DHT22;51109;47.414;18.954;2022-07-22T09:55:46;34.80;56.80
64685;DHT22;51109;47.414;18.954;2022-07-22T09:58:12;34.80;56.20
64685;DHT22;51109;47.414;18.954;2022-07-22T10:00:43;34.90;57.90
64685;DHT22;51109;47.414;18.954;2022-07-22T10:03:17;35.00;58.10
64685;DHT22;51109;47.414;18.954;2022-07-22T10:05:43;35.10;59.40
64685;DHT22;51109;47.414;18.954;2022-07-22T10:08:10;35.00;62.30
64685;DHT22;51109;47.414;18.954;2022-07-22T10:10:37;35.10;58.90
64685;DHT22;51109;47.414;18.954;2022-07-22T10:13:05;35.20;59.40
64685;DHT22;51109;47.414;18.954;2022-07-22T10:15:33;35.40;59.40
64685;DHT22;51109;47.414;18.954;2022-07-22T10:18:04;35.60;59.20
64685;DHT22;51109;47.414;18.954;2022-07-22T10:20:33;35.50;58.20
64685;DHT22;51109;47.414;18.954;2022-07-22T10:23:04;35.40;60.90
64685;DHT22;51109;47.414;18.954;2022-07-22T10:25:32;35.50;61.20
64685;DHT22;51109;47.414;18.954;2022-07-22T10:28:04;35.60;60.30
64685;DHT22;51109;47.414;18.954;2022-07-22T10:30:36;35.60;58.70
64685;DHT22;51109;47.414;18.954;2022-07-22T10:35:36;35.80;59.20
64685;DHT22;51109;47.414;18.954;2022-07-22T10:38:07;36.00;59.20
64685;DHT22;51109;47.414;18.954;2022-07-22T10:40:53;36.00;59.50
64685;DHT22;51109;47.414;18.954;2022-07-22T10:43:25;36.00;60.20
64685;DHT22;51109;47.414;18.954;2022-07-22T10:45:52;36.20;59.90
64685;DHT22;51109;47.414;18.954;2022-07-22T10:51:17;36.20;60.50
64685;DHT22;51109;47.414;18.954;2022-07-22T10:53:57;36.20;60.30
64685;DHT22;51109;47.414;18.954;2022-07-22T10:56:27;36.20;61.30
64685;DHT22;51109;47.414;18.954;2022-07-22T10:59:10;36.00;59.60
64685;DHT22;51109;47.414;18.954;2022-07-22T11:01:44;36.10;61.40
64685;DHT22;51109;47.414;18.954;2022-07-22T11:04:23;36.20;60.30
64685;DHT22;51109;47.414;18.954;2022-07-22T11:06:54;36.20;61.60
64685;DHT22;51109;47.414;18.954;2022-07-22T11:09:23;36.20;60.40
64685;DHT22;51109;47.414;18.954;2022-07-22T11:11:52;36.30;61.60
64685;DHT22;51109;47.414;18.954;2022-07-22T11:16:46;36.60;63.70
64685;DHT22;51109;47.414;18.954;2022-07-22T11:19:12;36.70;61.70
64685;DHT22;51109;47.414;18.954;2022-07-22T11:21:38;36.70;62.00
64685;DHT22;51109;47.414;18.954;2022-07-22T11:24:07;36.70;59.70
64685;DHT22;51109;47.414;18.954;2022-07-22T11:29:02;36.80;60.80
64685;DHT22;51109;47.414;18.954;2022-07-22T11:31:38;36.80;60.60
64685;DHT22;51109;47.414;18.954;2022-07-22T11:34:05;36.70;67.20
64685;DHT22;51109;47.414;18.954;2022-07-22T11:36:38;36.60;60.00
64685;DHT22;51109;47.414;18.954;2022-07-22T11:39:05;36.60;59.60
64685;DHT22;51109;47.414;18.954;2022-07-22T11:41:31;36.70;61.60
64685;DHT22;51109;47.414;18.954;2022-07-22T11:43:58;36.70;59.20
64685;DHT22;51109;47.414;18.954;2022-07-22T11:46:26;36.80;61.20
64685;DHT22;51109;47.414;18.954;2022-07-22T11:48:53;36.90;60.50
64685;DHT22;51109;47.414;18.954;2022-07-22T11:51:19;37.00;60.40
64685;DHT22;51109;47.414;18.954;2022-07-22T11:53:46;37.10;59.50
64685;DHT22;51109;47.414;18.954;2022-07-22T11:56:12;37.20;59.00
64685;DHT22;51109;47.414;18.954;2022-07-22T12:01:11;37.00;58.00
64685;DHT22;51109;47.414;18.954;2022-07-22T12:03:39;37.30;59.70
64685;DHT22;51109;47.414;18.954;2022-07-22T12:06:08;37.30;61.30
64685;DHT22;51109;47.414;18.954;2022-07-22T12:08:39;37.40;58.30
64685;DHT22;51109;47.414;18.954;2022-07-22T12:11:05;37.40;58.90
64685;DHT22;51109;47.414;18.954;2022-07-22T12:13:32;37.40;58.30
64685;DHT22;51109;47.414;18.954;2022-07-22T12:15:58;37.40;57.90
64685;DHT22;51109;47.414;18.954;2022-07-22T12:18:26;37.30;58.30
64685;DHT22;51109;47.414;18.954;2022-07-22T12:20:53;37.30;58.10
64685;DHT22;51109;47.414;18.954;2022-07-22T12:23:24;37.40;60.50
64685;DHT22;51109;47.414;18.954;2022-07-22T12:25:54;37.50;58.40
64685;DHT22;51109;47.414;18.954;2022-07-22T12:28:21;37.50;59.10
64685;DHT22;51109;47.414;18.954;2022-07-22T12:30:48;37.60;59.00
64685;DHT22;51109;47.414;18.954;2022-07-22T12:33:17;37.70;58.60
64685;DHT22;51109;47.414;18.954;2022-07-22T12:35:44;37.90;59.80
64685;DHT22;51109;47.414;18.954;2022-07-22T12:38:23;37.90;58.00
64685;DHT22;51109;47.414;18.954;2022-07-22T12:40:49;37.90;57.80
64685;DHT22;51109;47.414;18.954;2022-07-22T12:43:14;37.90;61.60
64685;DHT22;51109;47.414;18.954;2022-07-22T12:45:40;37.90;59.30
64685;DHT22;51109;47.414;18.954;2022-07-22T12:48:09;38.00;58.50
64685;DHT22;51109;47.414;18.954;2022-07-22T12:50:38;38.10;59.20
64685;DHT22;51109;47.414;18.954;2022-07-22T12:53:06;38.10;57.60
64685;DHT22;51109;47.414;18.954;2022-07-22T12:55:37;38.20;57.50
64685;DHT22;51109;47.414;18.954;2022-07-22T12:58:04;38.20;56.30
64685;DHT22;51109;47.414;18.954;2022-07-22T13:00:34;38.10;56.70
64685;DHT22;51109;47.414;18.954;2022-07-22T13:03:01;38.10;58.90
64685;DHT22;51109;47.414;18.954;2022-07-22T13:05:27;38.40;57.20
64685;DHT22;51109;47.414;18.954;2022-07-22T13:07:53;38.50;57.20
64685;DHT22;51109;47.414;18.954;2022-07-22T13:10:21;38.60;56.20
64685;DHT22;51109;47.414;18.954;2022-07-22T13:12:48;38.70;59.10
64685;DHT22;51109;47.414;18.954;2022-07-22T13:15:14;38.70;57.50
64685;DHT22;51109;47.414;18.954;2022-07-22T13:17:41;38.80;56.20
64685;DHT22;51109;47.414;18.954;2022-07-22T13:20:09;38.80;56.60
64685;DHT22;51109;47.414;18.954;2022-07-22T13:22:35;38.70;55.50
64685;DHT22;51109;47.414;18.954;2022-07-22T13:25:01;38.80;55.70
64685;DHT22;51109;47.414;18.954;2022-07-22T13:27:27;38.80;55.60
64685;DHT22;51109;47.414;18.954;2022-07-22T13:29:54;38.80;55.40
64685;DHT22;51109;47.414;18.954;2022-07-22T13:32:20;38.70;55.50
64685;DHT22;51109;47.414;18.954;2022-07-22T13:34:45;38.70;54.60
64685;DHT22;51109;47.414;18.954;2022-07-22T13:37:11;38.70;54.80
64685;DHT22;51109;47.414;18.954;2022-07-22T13:39:38;38.60;54.50
64685;DHT22;51109;47.414;18.954;2022-07-22T13:42:04;38.60;54.70
64685;DHT22;51109;47.414;18.954;2022-07-22T13:44:30;38.70;54.90
64685;DHT22;51109;47.414;18.954;2022-07-22T13:46:57;38.70;55.80
64685;DHT22;51109;47.414;18.954;2022-07-22T13:49:24;38.70;55.30
64685;DHT22;51109;47.414;18.954;2022-07-22T13:51:50;38.80;53.30
64685;DHT22;51109;47.414;18.954;2022-07-22T13:54:17;38.90;54.30
64685;DHT22;51109;47.414;18.954;2022-07-22T13:56:44;38.90;52.70
64685;DHT22;51109;47.414;18.954;2022-07-22T13:59:16;39.00;53.60
64685;DHT22;51109;47.414;18.954;2022-07-22T14:01:42;38.80;54.60
64685;DHT22;51109;47.414;18.954;2022-07-22T14:04:09;38.50;54.50
64685;DHT22;51109;47.414;18.954;2022-07-22T14:06:35;38.60;53.60
64685;DHT22;51109;47.414;18.954;2022-07-22T14:09:01;38.50;55.80
64685;DHT22;51109;47.414;18.954;2022-07-22T14:11:27;38.30;54.50
64685;DHT22;51109;47.414;18.954;2022-07-22T14:13:53;38.10;54.40
64685;DHT22;51109;47.414;18.954;2022-07-22T14:16:19;38.00;54.40
64685;DHT22;51109;47.414;18.954;2022-07-22T14:19:12;38.00;54.00
64685;DHT22;51109;47.414;18.954;2022-07-22T14:21:39;38.20;55.10
64685;DHT22;51109;47.414;18.954;2022-07-22T14:24:07;38.50;53.50
64685;DHT22;51109;47.414;18.954;2022-07-22T14:26:34;38.60;53.90
64685;DHT22;51109;47.414;18.954;2022-07-22T14:29:00;38.80;55.10
64685;DHT22;51109;47.414;18.954;2022-07-22T14:31:26;38.90;52.90
64685;DHT22;51109;47.414;18.954;2022-07-22T14:33:54;39.10;52.30
64685;DHT22;51109;47.414;18.954;2022-07-22T14:36:20;39.30;53.60
64685;DHT22;51109;47.414;18.954;2022-07-22T14:38:46;39.30;52.40
64685;DHT22;51109;47.414;18.954;2022-07-22T14:41:12;39.40;52.40
64685;DHT22;51109;47.414;18.954;2022-07-22T14:46:05;39.60;52.20
64685;DHT22;51109;47.414;18.954;2022-07-22T14:48:33;39.50;52.40
64685;DHT22;51109;47.414;18.954;2022-07-22T14:50:59;39.40;53.50
64685;DHT22;51109;47.414;18.954;2022-07-22T14:53:25;39.00;52.90
64685;DHT22;51109;47.414;18.954;2022-07-22T14:55:51;39.00;54.50
64685;DHT22;51109;47.414;18.954;2022-07-22T14:58:17;39.30;53.90
64685;DHT22;51109;47.414;18.954;2022-07-22T15:00:44;39.30;52.80
64685;DHT22;51109;47.414;18.954;2022-07-22T15:03:10;39.30;53.60
64685;DHT22;51109;47.414;18.954;2022-07-22T15:05:36;39.40;53.20
64685;DHT22;51109;47.414;18.954;2022-07-22T15:08:05;39.40;53.60
64685;DHT22;51109;47.414;18.954;2022-07-22T15:10:31;39.30;53.30
64685;DHT22;51109;47.414;18.954;2022-07-22T15:12:57;39.20;53.00
64685;DHT22;51109;47.414;18.954;2022-07-22T15:15:23;39.20;53.50
64685;DHT22;51109;47.414;18.954;2022-07-22T15:17:49;39.30;53.10
64685;DHT22;51109;47.414;18.954;2022-07-22T15:20:15;39.30;54.30
64685;DHT22;51109;47.414;18.954;2022-07-22T15:22:41;39.40;53.40
64685;DHT22;51109;47.414;18.954;2022-07-22T15:25:07;39.60;52.60
64685;DHT22;51109;47.414;18.954;2022-07-22T15:27:33;39.70;52.80
64685;DHT22;51109;47.414;18.954;2022-07-22T15:30:05;39.70;52.40